Time;durP1;ratioP1;P1;durP2;ratioP2;P2;SDS_P1;SDS_P2;PMS_P1;PMS_P2;Temp;Humidity;BMP_temperature;BMP_pressure;BME280_temperature;BME280_humidity;BME280_pressure;Samples;Min_cycle;Max_cycle;Signal;HPM_P1;HPM_P2
2021/07/20 00:00:06;;;;;;;7.40;6.70;;;25.00;62.10;;;;;;5064646;28;20036;-74
2021/07/20 00:02:40;;;;;;;6.85;6.32;;;24.90;62.00;;;;;;5063892;28;20112;-74
2021/07/20 00:05:09;;;;;;;6.85;6.25;;;24.90;62.20;;;;;;5065081;28;20039;-75
2021/07/20 00:07:35;;;;;;;7.28;6.57;;;24.80;62.10;;;;;;5065572;28;20044;-74
2021/07/20 00:10:01;;;;;;;7.40;6.70;;;24.80;62.10;;;;;;5068632;28;20036;-74
2021/07/20 00:12:27;;;;;;;7.60;6.88;;;24.70;62.10;;;;;;5051293;28;20028;-75
2021/07/20 00:14:53;;;;;;;7.20;6.55;;;24.70;62.20;;;;;;5067615;28;20072;-74
2021/07/20 00:17:22;;;;;;;7.53;6.90;;;24.60;62.00;;;;;;5068823;28;20029;-75
2021/07/20 00:19:51;;;;;;;7.47;6.78;;;24.60;62.10;;;;;;5068706;28;20169;-76
2021/07/20 00:22:17;;;;;;;7.07;6.47;;;24.50;62.10;;;;;;5067641;28;20024;-74
2021/07/20 00:24:43;;;;;;;8.57;6.82;;;24.50;62.10;;;;;;5067380;28;20025;-73
2021/07/20 00:27:09;;;;;;;9.38;6.97;;;24.50;62.30;;;;;;5067875;28;20029;-74
2021/07/20 00:29:35;;;;;;;8.32;7.60;;;24.50;62.40;;;;;;5066891;28;20043;-74
2021/07/20 00:32:04;;;;;;;7.43;6.72;;;24.40;62.30;;;;;;5067792;28;20031;-75
2021/07/20 00:34:30;;;;;;;7.57;6.88;;;24.40;62.90;;;;;;5068771;28;20036;-74
2021/07/20 00:36:56;;;;;;;6.90;6.30;;;24.30;62.30;;;;;;5066938;28;20065;-75
2021/07/20 00:39:22;;;;;;;7.03;6.20;;;24.30;62.40;;;;;;5067731;28;20036;-74
2021/07/20 00:41:48;;;;;;;8.18;7.47;;;24.30;62.40;;;;;;5067306;28;20495;-74
2021/07/20 00:44:14;;;;;;;10.48;7.28;;;24.20;62.40;;;;;;5067570;28;20036;-75
2021/07/20 00:46:40;;;;;;;8.13;7.32;;;24.20;62.40;;;;;;5068915;28;20035;-75
2021/07/20 00:49:06;;;;;;;7.72;7.00;;;24.20;62.50;;;;;;5067271;28;20044;-75
2021/07/20 00:51:33;;;;;;;7.35;6.65;;;24.10;62.40;;;;;;5067574;28;20120;-74
2021/07/20 00:53:59;;;;;;;7.80;7.00;;;24.10;62.50;;;;;;5068238;28;20047;-75
2021/07/20 00:56:26;;;;;;;8.45;7.68;;;24.00;62.50;;;;;;5069011;28;20074;-77
2021/07/20 00:58:54;;;;;;;8.50;7.80;;;24.00;62.50;;;;;;5067962;28;20601;-75
2021/07/20 01:01:21;;;;;;;7.60;6.82;;;23.90;62.50;;;;;;5066138;28;20135;-75
2021/07/20 01:03:53;;;;;;;7.85;7.15;;;23.90;62.50;;;;;;5066709;28;20032;-75
2021/07/20 01:06:23;;;;;;;7.95;7.25;;;23.90;62.60;;;;;;5067188;28;20036;-75
2021/07/20 01:08:53;;;;;;;8.43;7.65;;;23.80;62.50;;;;;;5066484;28;20072;-77
2021/07/20 01:11:25;;;;;;;8.20;7.40;;;23.80;62.60;;;;;;5067405;28;20966;-75
2021/07/20 01:13:52;;;;;;;8.20;7.45;;;23.70;62.50;;;;;;5068247;28;20492;-75
2021/07/20 01:16:19;;;;;;;9.40;6.97;;;23.70;62.60;;;;;;5066461;28;20241;-77
2021/07/20 01:18:48;;;;;;;7.97;7.22;;;23.70;62.70;;;;;;5066487;28;20159;-77
2021/07/20 01:21:14;;;;;;;8.45;7.50;;;23.60;62.60;;;;;;5066821;28;20034;-82
2021/07/20 01:23:44;;;;;;;8.07;7.05;;;23.60;62.70;;;;;;5067174;28;20352;-76
2021/07/20 01:26:13;;;;;;;7.72;6.93;;;23.50;62.60;;;;;;5066658;28;20036;-77
2021/07/20 01:28:41;;;;;;;7.82;7.13;;;23.50;62.60;;;;;;5066391;28;20040;-76
2021/07/20 01:31:13;;;;;;;7.95;7.18;;;23.50;62.70;;;;;;5077284;28;20047;-76
2021/07/20 01:33:43;;;;;;;7.78;7.07;;;23.40;62.60;;;;;;5067851;28;20025;-76
2021/07/20 01:36:10;;;;;;;7.43;6.82;;;23.40;62.80;;;;;;5085180;28;20040;-75
2021/07/20 01:38:42;;;;;;;8.25;7.55;;;23.30;62.60;;;;;;5067398;28;20115;-76
2021/07/20 01:41:13;;;;;;;8.27;7.57;;;23.30;62.70;;;;;;5051689;28;20024;-76
2021/07/20 01:43:44;;;;;;;9.00;8.10;;;23.30;62.80;;;;;;5067895;28;20033;-76
2021/07/20 01:46:13;;;;;;;9.18;8.30;;;23.20;62.80;;;;;;5068060;28;20027;-75
2021/07/20 01:48:43;;;;;;;8.07;7.22;;;23.20;62.80;;;;;;5070467;28;20110;-76
2021/07/20 01:51:16;;;;;;;8.38;7.57;;;23.20;62.90;;;;;;5070682;28;20039;-76
2021/07/20 01:53:46;;;;;;;8.02;7.30;;;23.20;63.00;;;;;;5070726;28;20380;-76
2021/07/20 01:56:13;;;;;;;8.90;6.68;;;23.10;62.90;;;;;;5070945;28;20040;-75
2021/07/20 01:58:42;;;;;;;10.00;7.43;;;23.10;63.00;;;;;;5070461;28;20028;-77
2021/07/20 02:01:29;;;;;;;8.18;7.38;;;23.10;63.10;;;;;;5071302;28;20028;-75
2021/07/20 02:04:50;;;;;;;7.63;6.93;;;23.00;62.90;;;;;;5070661;28;20113;-75
2021/07/20 02:09:37;;;;;;;8.30;7.47;;;23.00;63.00;;;;;;5087296;28;20446;-75
2021/07/20 02:12:15;;;;;;;7.13;6.53;;;23.00;63.10;;;;;;5071976;28;20059;-77
2021/07/20 02:15:20;;;;;;;8.50;7.65;;;22.90;63.10;;;;;;5064307;28;20506;-76
2021/07/20 02:18:04;;;;;;;9.07;7.40;;;22.90;63.00;;;;;;5070467;28;20067;-76
2021/07/20 02:20:35;;;;;;;8.43;6.95;;;22.90;63.10;;;;;;5071783;28;20195;-75
2021/07/20 02:23:07;;;;;;;7.53;6.82;;;22.80;63.00;;;;;;5070178;28;20438;-78
2021/07/20 02:25:37;;;;;;;8.18;7.45;;;22.80;63.10;;;;;;5070080;28;20434;-75
2021/07/20 02:28:05;;;;;;;8.80;7.90;;;22.80;63.20;;;;;;5070385;28;20224;-75
2021/07/20 02:30:39;;;;;;;7.82;7.07;;;22.70;63.10;;;;;;5069735;28;20029;-74
2021/07/20 02:33:06;;;;;;;8.63;7.93;;;22.70;63.10;;;;;;5071301;28;20060;-75
2021/07/20 02:35:37;;;;;;;7.70;6.82;;;22.70;63.20;;;;;;5069727;28;20036;-74
2021/07/20 02:38:06;;;;;;;8.05;7.35;;;22.70;63.30;;;;;;5070153;28;20029;-74
2021/07/20 02:40:34;;;;;;;8.07;7.18;;;22.60;63.20;;;;;;5069828;28;20044;-77
2021/07/20 02:43:02;;;;;;;8.13;7.22;;;22.60;63.30;;;;;;5071297;28;20024;-73
2021/07/20 02:45:33;;;;;;;9.15;8.20;;;22.60;63.40;;;;;;5069807;28;20032;-74
2021/07/20 02:48:03;;;;;;;7.93;7.15;;;22.60;63.40;;;;;;5069797;28;20107;-73
2021/07/20 02:50:31;;;;;;;8.70;7.82;;;22.50;63.90;;;;;;5070487;28;20138;-77
2021/07/20 02:53:19;;;;;;;7.50;6.80;;;22.50;63.30;;;;;;5071426;28;20033;-77
2021/07/20 02:55:54;;;;;;;7.70;7.00;;;22.50;63.40;;;;;;5069938;28;20389;-80
2021/07/20 02:58:22;;;;;;;8.10;7.28;;;22.40;63.30;;;;;;5069981;28;20025;-75
2021/07/20 03:00:49;;;;;;;8.55;7.03;;;22.40;63.30;;;;;;5068819;28;20463;-79
2021/07/20 03:03:15;;;;;;;7.25;6.63;;;22.40;63.40;;;;;;5071650;28;20046;-77
2021/07/20 03:05:50;;;;;;;7.60;6.90;;;22.40;63.50;;;;;;5054219;28;20029;-77
2021/07/20 03:08:22;;;;;;;8.38;7.68;;;22.40;63.50;;;;;;5071051;28;20041;-74
2021/07/20 03:11:03;;;;;;;7.15;6.55;;;22.30;63.40;;;;;;5086332;28;20131;-84
2021/07/20 03:13:31;;;;;;;7.13;6.40;;;22.30;63.50;;;;;;5071020;28;20373;-78
2021/07/20 03:16:01;;;;;;;7.13;6.53;;;22.20;63.30;;;;;;5070076;28;20025;-82
2021/07/20 03:18:29;;;;;;;7.43;6.70;;;22.20;63.40;;;;;;5071103;28;20542;-80
2021/07/20 03:20:59;;;;;;;7.15;6.55;;;22.20;63.40;;;;;;5086369;28;20033;-79
2021/07/20 03:23:28;;;;;;;6.88;6.18;;;22.20;63.50;;;;;;5069971;28;20056;-76
2021/07/20 03:25:57;;;;;;;7.88;6.82;;;22.20;63.50;;;;;;5070824;28;20381;-78
2021/07/20 03:28:25;;;;;;;8.00;7.30;;;22.10;63.50;;;;;;5070905;28;20028;-77
2021/07/20 03:30:52;;;;;;;8.25;6.55;;;22.10;63.50;;;;;;5069442;28;20483;-81
2021/07/20 03:33:24;;;;;;;7.53;6.78;;;22.10;63.50;;;;;;5069811;28;20058;-77
2021/07/20 03:36:06;;;;;;;7.03;6.43;;;22.00;63.40;;;;;;5070182;28;20111;-76
2021/07/20 03:38:34;;;;;;;7.03;6.43;;;22.00;63.40;;;;;;5069013;28;20028;-75
2021/07/20 03:41:05;;;;;;;7.35;6.70;;;21.90;63.30;;;;;;5071867;28;20035;-75
2021/07/20 03:43:32;;;;;;;6.80;6.15;;;21.90;63.90;;;;;;5073102;28;20035;-75
2021/07/20 03:46:01;;;;;;;8.75;6.80;;;21.90;63.50;;;;;;5074819;28;20033;-76
2021/07/20 03:48:32;;;;;;;6.65;6.15;;;21.90;63.60;;;;;;5072838;28;20024;-75
2021/07/20 03:51:25;;;;;;;7.18;6.47;;;21.80;63.40;;;;;;5071674;28;20040;-77
2021/07/20 03:53:53;;;;;;;7.03;6.50;;;21.80;63.40;;;;;;5074763;28;20422;-76
2021/07/20 03:56:20;;;;;;;8.18;7.05;;;21.80;63.50;;;;;;5074696;28;20085;-76
2021/07/20 03:58:54;;;;;;;7.10;6.40;;;21.80;63.60;;;;;;5089124;28;20024;-76
2021/07/20 04:01:23;;;;;;;7.75;6.30;;;21.70;63.40;;;;;;5073744;28;20029;-78
2021/07/20 04:03:52;;;;;;;7.03;6.43;;;21.70;63.50;;;;;;5073417;28;20081;-76
2021/07/20 04:06:40;;;;;;;7.55;6.75;;;21.70;63.60;;;;;;5062711;28;20032;-77
2021/07/20 04:09:26;;;;;;;7.03;6.43;;;21.60;63.40;;;;;;5087176;28;20139;-76
2021/07/20 04:12:21;;;;;;;7.45;6.75;;;21.60;63.50;;;;;;5060524;28;20037;-75
2021/07/20 04:15:24;;;;;;;6.95;6.25;;;21.60;63.50;;;;;;5060590;28;20483;-77
2021/07/20 04:18:10;;;;;;;7.07;6.38;;;21.50;63.30;;;;;;5072990;28;20484;-75
2021/07/20 04:20:37;;;;;;;7.05;6.45;;;21.50;63.40;;;;;;5074156;28;20078;-76
2021/07/20 04:23:05;;;;;;;8.68;6.78;;;21.50;63.50;;;;;;5072573;28;20039;-76
2021/07/20 04:25:43;;;;;;;7.38;6.72;;;21.50;63.60;;;;;;5072685;28;20090;-78
2021/07/20 04:28:14;;;;;;;6.60;6.10;;;21.40;63.40;;;;;;5074157;28;20902;-76
2021/07/20 04:30:43;;;;;;;7.60;6.90;;;21.40;63.50;;;;;;5070913;28;20054;-78
2021/07/20 04:33:13;;;;;;;7.18;6.38;;;21.40;63.60;;;;;;5052879;28;20094;-77
2021/07/20 04:35:59;;;;;;;6.95;6.30;;;21.40;63.70;;;;;;5069832;28;20087;-76
2021/07/20 04:38:30;;;;;;;7.38;6.03;;;21.30;63.40;;;;;;5052822;28;20105;-78
2021/07/20 04:40:58;;;;;;;7.93;6.32;;;21.30;63.50;;;;;;5052492;28;20416;-77
2021/07/20 04:43:25;;;;;;;8.13;7.32;;;21.30;63.60;;;;;;5052620;28;20025;-75
2021/07/20 04:45:54;;;;;;;6.95;6.25;;;21.30;63.60;;;;;;5052222;28;20037;-74
2021/07/20 04:48:22;;;;;;;6.78;6.18;;;21.30;63.70;;;;;;5059780;28;20391;-74
2021/07/20 04:50:58;;;;;;;6.70;6.10;;;21.30;63.70;;;;;;5068200;28;20161;-74
2021/07/20 04:53:25;;;;;;;7.85;7.15;;;21.20;63.60;;;;;;5068096;28;20036;-74
2021/07/20 04:55:52;;;;;;;6.85;6.25;;;21.20;63.60;;;;;;5070510;28;20459;-74
2021/07/20 04:58:19;;;;;;;6.43;5.85;;;21.30;63.80;;;;;;5068967;28;20021;-75
2021/07/20 05:00:54;;;;;;;6.28;5.68;;;21.20;63.60;;;;;;5067999;28;20312;-76
2021/07/20 05:03:23;;;;;;;7.00;6.40;;;21.20;63.70;;;;;;5066714;28;20032;-76
2021/07/20 05:05:53;;;;;;;7.40;5.88;;;21.20;63.70;;;;;;5083828;28;20094;-77
2021/07/20 05:08:21;;;;;;;7.70;6.53;;;21.20;63.80;;;;;;5083362;28;20044;-77
2021/07/20 05:10:57;;;;;;;7.78;6.35;;;21.20;63.80;;;;;;5067463;28;20472;-81
2021/07/20 05:13:27;;;;;;;7.05;6.38;;;21.20;63.80;;;;;;5050382;28;20494;-75
2021/07/20 05:16:00;;;;;;;9.38;6.95;;;21.20;63.80;;;;;;5068220;28;20681;-77
2021/07/20 05:18:37;;;;;;;7.28;6.57;;;21.20;63.80;;;;;;5066906;28;20125;-76
2021/07/20 05:21:07;;;;;;;7.22;6.22;;;21.20;63.80;;;;;;5066874;28;20024;-76
2021/07/20 05:23:38;;;;;;;7.05;6.35;;;21.20;63.80;;;;;;5066598;28;20036;-75
2021/07/20 05:26:25;;;;;;;6.88;6.18;;;21.30;64.00;;;;;;5068445;28;20113;-76
2021/07/20 05:28:53;;;;;;;6.75;6.15;;;21.20;63.80;;;;;;5067846;28;20316;-78
2021/07/20 05:31:20;;;;;;;7.30;6.60;;;21.30;64.00;;;;;;5067457;28;20040;-77
2021/07/20 05:33:48;;;;;;;6.40;5.80;;;21.20;63.80;;;;;;5066460;28;20032;-77
2021/07/20 05:36:14;;;;;;;9.27;6.18;;;21.30;64.10;;;;;;5066792;28;20274;-78
2021/07/20 05:38:41;;;;;;;6.97;6.28;;;21.30;64.00;;;;;;5066992;28;20399;-78
2021/07/20 05:41:41;;;;;;;6.90;6.07;;;21.30;64.10;;;;;;5047715;28;20353;-76
2021/07/20 05:44:12;;;;;;;6.63;5.90;;;21.30;64.00;;;;;;5065807;28;20021;-78
2021/07/20 05:46:40;;;;;;;6.55;5.90;;;21.30;64.60;;;;;;5066308;28;20107;-78
2021/07/20 05:49:07;;;;;;;7.47;6.13;;;21.30;64.00;;;;;;5065467;28;20090;-78
2021/07/20 05:51:39;;;;;;;6.90;6.20;;;21.30;64.40;;;;;;5065943;28;20395;-75
2021/07/20 05:54:13;;;;;;;7.18;6.47;;;21.40;64.80;;;;;;5065664;28;20036;-78
2021/07/20 05:56:51;;;;;;;9.18;7.35;;;21.40;65.00;;;;;;5081114;28;20024;-77
2021/07/20 05:59:38;;;;;;;9.20;7.93;;;21.50;65.50;;;;;;5065381;28;20033;-77
2021/07/20 06:02:13;;;;;;;9.02;8.13;;;21.50;65.80;;;;;;5065338;28;20032;-77
2021/07/20 06:04:39;;;;;;;9.93;8.38;;;21.60;66.30;;;;;;5065802;28;20028;-77
2021/07/20 06:07:09;;;;;;;8.80;7.90;;;21.60;66.40;;;;;;5065342;28;20040;-78
2021/07/20 06:09:36;;;;;;;11.25;8.68;;;21.60;66.70;;;;;;5045360;28;20317;-78
2021/07/20 06:12:08;;;;;;;14.18;9.90;;;21.70;67.10;;;;;;5048751;28;20103;-77
2021/07/20 06:14:37;;;;;;;9.50;8.43;;;21.70;67.30;;;;;;5066587;28;20115;-78
2021/07/20 06:17:04;;;;;;;9.82;9.00;;;21.70;67.50;;;;;;5066742;28;20029;-78
2021/07/20 06:19:32;;;;;;;8.77;7.88;;;21.80;67.80;;;;;;5065010;28;20036;-76
2021/07/20 06:22:01;;;;;;;10.70;9.65;;;21.90;68.80;;;;;;5067497;28;20107;-75
2021/07/20 06:24:34;;;;;;;12.95;9.30;;;22.00;68.60;;;;;;5065206;28;20025;-77
2021/07/20 06:27:00;;;;;;;12.20;8.85;;;22.00;68.70;;;;;;5065527;28;20123;-77
2021/07/20 06:29:27;;;;;;;11.75;8.70;;;22.10;69.00;;;;;;5066393;28;20510;-74
2021/07/20 06:31:54;;;;;;;11.50;10.40;;;22.10;69.20;;;;;;5063976;28;20024;-74
2021/07/20 06:34:21;;;;;;;10.50;9.40;;;22.20;69.30;;;;;;5056980;28;20056;-74
2021/07/20 06:36:47;;;;;;;12.35;9.88;;;22.30;69.60;;;;;;5064331;28;20028;-75
2021/07/20 06:39:13;;;;;;;11.80;10.20;;;22.40;69.80;;;;;;5066076;28;20028;-74
2021/07/20 06:41:40;;;;;;;10.85;9.68;;;22.50;70.10;;;;;;5066597;28;20320;-75
2021/07/20 06:44:07;;;;;;;11.43;9.80;;;22.60;70.20;;;;;;5064901;28;20036;-75
2021/07/20 06:46:36;;;;;;;12.52;9.32;;;22.80;70.60;;;;;;5065362;28;20179;-74
2021/07/20 06:49:02;;;;;;;11.35;10.25;;;22.90;70.70;;;;;;5056248;28;20041;-76
2021/07/20 06:51:30;;;;;;;15.07;10.85;;;23.10;70.80;;;;;;5062426;28;20067;-79
2021/07/20 06:53:57;;;;;;;14.95;11.73;;;23.20;70.70;;;;;;5062076;28;20056;-73
2021/07/20 06:56:32;;;;;;;13.48;11.32;;;23.50;71.10;;;;;;5064408;28;20035;-79
2021/07/20 06:59:00;;;;;;;12.20;11.00;;;23.70;71.30;;;;;;5065474;28;20032;-76
2021/07/20 07:01:29;;;;;;;13.70;11.70;;;24.00;71.40;;;;;;5063686;28;20178;-78
2021/07/20 07:04:17;;;;;;;13.02;11.30;;;24.20;71.40;;;;;;5066089;28;20040;-78
2021/07/20 07:06:46;;;;;;;13.52;11.68;;;24.50;71.10;;;;;;5065548;28;20412;-76
2021/07/20 07:09:13;;;;;;;15.98;11.90;;;24.80;71.00;;;;;;5064197;28;20041;-77
2021/07/20 07:11:41;;;;;;;13.75;12.02;;;25.00;70.60;;;;;;5065037;28;20024;-78
2021/07/20 07:14:09;;;;;;;13.60;11.05;;;25.30;70.30;;;;;;5064763;28;20085;-76
2021/07/20 07:16:37;;;;;;;17.83;11.07;;;25.50;69.90;;;;;;5047384;28;20024;-75
2021/07/20 07:19:04;;;;;;;13.65;10.68;;;25.70;69.40;;;;;;5065643;28;20039;-76
2021/07/20 07:21:32;;;;;;;11.15;10.05;;;25.90;69.00;;;;;;5065052;28;20032;-76
2021/07/20 07:24:00;;;;;;;14.05;10.20;;;26.20;68.80;;;;;;5065476;28;20488;-77
2021/07/20 07:26:26;;;;;;;11.38;9.90;;;26.40;68.50;;;;;;5065689;28;20033;-77
2021/07/20 07:28:53;;;;;;;13.40;10.23;;;26.60;68.10;;;;;;5065232;28;20392;-77
2021/07/20 07:31:20;;;;;;;10.73;9.63;;;26.80;67.50;;;;;;5063890;28;20119;-76
2021/07/20 07:33:47;;;;;;;11.85;9.40;;;27.10;67.10;;;;;;5063286;28;20040;-77
2021/07/20 07:36:16;;;;;;;11.68;9.38;;;27.40;66.60;;;;;;5064694;28;20036;-76
2021/07/20 07:38:46;;;;;;;11.52;9.45;;;27.60;66.20;;;;;;5065452;28;20063;-76
2021/07/20 07:41:16;;;;;;;13.80;9.25;;;27.80;65.80;;;;;;5065557;28;20028;-75
2021/07/20 07:43:43;;;;;;;14.90;10.63;;;28.10;65.30;;;;;;5063795;28;20032;-76
2021/07/20 07:46:11;;;;;;;10.68;8.60;;;28.30;64.50;;;;;;5066273;28;20062;-77
2021/07/20 07:48:39;;;;;;;14.65;10.55;;;28.60;64.10;;;;;;5064263;28;20036;-77
2021/07/20 07:51:07;;;;;;;11.55;10.32;;;28.80;63.60;;;;;;5062636;28;20086;-77
2021/07/20 07:53:39;;;;;;;10.90;9.77;;;29.00;63.00;;;;;;5064189;28;20333;-77
2021/07/20 07:56:06;;;;;;;13.32;9.25;;;29.30;62.40;;;;;;5065247;28;20043;-75
2021/07/20 07:58:34;;;;;;;9.95;8.45;;;29.60;62.20;;;;;;5065552;28;20059;-76
2021/07/20 08:01:06;;;;;;;11.77;9.70;;;29.80;61.70;;;;;;5064207;28;20535;-75
2021/07/20 08:03:38;;;;;;;10.73;9.57;;;30.00;61.20;;;;;;5064381;28;20408;-77
2021/07/20 08:06:04;;;;;;;10.75;8.90;;;30.30;60.70;;;;;;5065796;28;20331;-78
2021/07/20 08:08:35;;;;;;;9.35;8.35;;;30.50;60.20;;;;;;5065022;28;20044;-76
2021/07/20 08:11:04;;;;;;;9.60;8.57;;;30.70;59.50;;;;;;5063959;28;20043;-75
2021/07/20 08:13:31;;;;;;;9.38;8.38;;;30.90;59.00;;;;;;5065391;28;20078;-76
2021/07/20 08:15:59;;;;;;;10.98;8.20;;;31.10;58.80;;;;;;5065321;28;20113;-75
2021/07/20 08:18:26;;;;;;;9.88;8.40;;;31.30;58.30;;;;;;5064806;28;20032;-75
2021/07/20 08:21:02;;;;;;;9.68;8.73;;;31.60;57.90;;;;;;5065063;28;20032;-75
2021/07/20 08:23:30;;;;;;;9.95;8.52;;;31.80;57.30;;;;;;5063399;28;20032;-78
2021/07/20 08:26:03;;;;;;;13.52;9.52;;;32.00;56.70;;;;;;5065397;28;20456;-75
2021/07/20 08:28:44;;;;;;;8.38;7.50;;;32.20;55.90;;;;;;5065824;28;20040;-76
2021/07/20 08:31:12;;;;;;;10.23;8.63;;;32.50;55.70;;;;;;5068709;28;20032;-76
2021/07/20 08:33:38;;;;;;;12.05;7.15;;;32.70;55.10;;;;;;5067810;28;20436;-76
2021/07/20 08:36:08;;;;;;;11.52;8.05;;;33.00;54.20;;;;;;5068673;28;20028;-77
2021/07/20 08:38:35;;;;;;;10.25;7.90;;;33.30;53.30;;;;;;5067645;28;20039;-76
2021/07/20 08:41:06;;;;;;;10.05;7.55;;;33.50;53.00;;;;;;5068598;28;20153;-76
2021/07/20 08:43:59;;;;;;;9.35;7.57;;;33.70;52.40;;;;;;5068422;28;20072;-77
2021/07/20 08:46:36;;;;;;;;;;;33.80;51.70;;;;;;5068531;28;20511;-77
2021/07/20 08:49:31;;;;;;;13.27;6.88;;;34.10;52.10;;;;;;5068729;28;20287;-78
2021/07/20 08:52:05;;;;;;;8.88;7.25;;;34.20;51.30;;;;;;5068877;28;20029;-77
2021/07/20 08:54:50;;;;;;;8.27;7.47;;;34.30;50.40;;;;;;5068697;28;20362;-76
2021/07/20 08:57:27;;;;;;;7.70;7.00;;;34.30;50.10;;;;;;5067769;28;20028;-75
2021/07/20 09:00:09;;;;;;;7.72;6.20;;;34.40;49.50;;;;;;5065892;28;20036;-74
2021/07/20 09:02:59;;;;;;;14.85;6.90;;;34.40;49.30;;;;;;5056287;28;20032;-74
2021/07/20 09:05:34;;;;;;;10.93;6.72;;;34.30;49.20;;;;;;5048706;28;20190;-75
2021/07/20 09:08:03;;;;;;;8.50;6.30;;;34.20;48.80;;;;;;5054290;28;20056;-74
2021/07/20 09:10:54;;;;;;;10.15;6.82;;;34.10;48.70;;;;;;5067828;28;20434;-73
2021/07/20 09:13:29;;;;;;;7.60;6.85;;;33.80;48.80;;;;;;5060100;28;20549;-73
2021/07/20 09:16:05;;;;;;;8.65;6.88;;;33.50;49.50;;;;;;5066964;28;20040;-73
2021/07/20 09:18:41;;;;;;;7.30;6.55;;;33.20;50.00;;;;;;5069916;28;20028;-75
2021/07/20 09:21:10;;;;;;;7.55;6.28;;;33.00;50.50;;;;;;5068823;28;20388;-74
2021/07/20 09:23:44;;;;;;;8.40;6.82;;;32.70;51.00;;;;;;5066418;28;20028;-74
2021/07/20 09:26:23;;;;;;;9.77;6.78;;;32.60;51.20;;;;;;5069030;28;20070;-74
2021/07/20 09:28:56;;;;;;;8.07;6.53;;;32.40;51.40;;;;;;5067387;28;20122;-75
2021/07/20 09:31:32;;;;;;;;;;;32.40;51.40;;;;;;5066722;28;20066;-74
2021/07/20 09:34:40;;;;;;;9.93;6.35;;;32.40;51.60;;;;;;5067070;28;19912;-74
2021/07/20 09:37:12;;;;;;;7.50;6.35;;;32.40;51.50;;;;;;5068019;28;20025;-74
2021/07/20 09:40:05;;;;;;;11.20;7.15;;;32.40;51.10;;;;;;5065279;28;20393;-74
2021/07/20 09:42:36;;;;;;;9.18;6.65;;;32.40;51.10;;;;;;5065071;28;20078;-75
2021/07/20 09:45:31;;;;;;;9.52;5.97;;;32.40;51.20;;;;;;5062439;28;20033;-74
2021/07/20 09:48:22;;;;;;;9.02;6.65;;;32.30;50.80;;;;;;5048712;28;20040;-75
2021/07/20 09:50:59;;;;;;;12.05;6.47;;;32.20;50.90;;;;;;5066778;28;20087;-75
2021/07/20 09:53:51;;;;;;;10.55;7.30;;;32.10;51.20;;;;;;5066870;28;20151;-75
2021/07/20 09:56:50;;;;;;;9.88;6.80;;;32.10;51.30;;;;;;5066117;28;20074;-75
2021/07/20 10:00:09;;;;;;;7.30;6.43;;;32.00;51.40;;;;;;5042839;28;20037;-79
2021/07/20 10:03:04;;;;;;;8.40;6.50;;;32.00;51.70;;;;;;5042202;28;20388;-75
2021/07/20 10:05:54;;;;;;;7.65;6.63;;;32.00;51.90;;;;;;5065294;28;20444;-75
2021/07/20 10:08:34;;;;;;;11.55;6.50;;;31.90;51.80;;;;;;5065017;28;20063;-75
2021/07/20 10:11:24;;;;;;;6.82;6.13;;;31.90;51.90;;;;;;5067338;28;20606;-74
2021/07/20 10:14:21;;;;;;;7.03;6.15;;;31.90;51.70;;;;;;5066590;28;20036;-75
2021/07/20 10:17:28;;;;;;;9.13;6.05;;;32.00;51.90;;;;;;5066613;28;20108;-79
2021/07/20 10:20:16;;;;;;;5.72;5.15;;;31.90;51.60;;;;;;5063546;28;20491;-79
2021/07/20 10:22:58;;;;;;;6.53;5.22;;;31.90;51.40;;;;;;5057046;28;20070;-75
2021/07/20 10:25:42;;;;;;;10.25;5.57;;;32.00;50.90;;;;;;5065011;28;20024;-75
2021/07/20 10:28:11;;;;;;;11.68;6.15;;;32.00;50.60;;;;;;5066221;28;20115;-74
2021/07/20 10:30:38;;;;;;;9.82;5.90;;;32.00;50.80;;;;;;5065985;28;20055;-76
2021/07/20 10:33:24;;;;;;;9.25;5.90;;;32.00;50.60;;;;;;5065550;28;20038;-76
2021/07/20 10:36:01;;;;;;;10.02;5.50;;;32.10;50.10;;;;;;5066890;28;20123;-77
2021/07/20 10:38:42;;;;;;;10.10;5.85;;;32.10;50.00;;;;;;5063907;28;20165;-75
2021/07/20 10:41:11;;;;;;;10.65;5.68;;;32.10;50.00;;;;;;5066594;28;20400;-77
2021/07/20 10:43:41;;;;;;;7.10;4.47;;;32.20;49.80;;;;;;5065981;28;20379;-74
2021/07/20 10:46:11;;;;;;;7.40;4.80;;;32.20;49.30;;;;;;5065223;28;20027;-80
2021/07/20 10:48:42;;;;;;;5.95;4.90;;;32.20;48.30;;;;;;5065788;28;20518;-72
2021/07/20 10:51:12;;;;;;;6.43;4.78;;;32.30;48.00;;;;;;5066248;28;20074;-75
2021/07/20 10:54:12;;;;;;;7.75;5.30;;;32.30;47.90;;;;;;5066788;28;20116;-73
2021/07/20 10:57:00;;;;;;;9.68;4.80;;;32.40;48.20;;;;;;5066610;28;20043;-76
2021/07/20 10:59:57;;;;;;;9.25;4.60;;;32.40;48.00;;;;;;5064380;28;20032;-86
2021/07/20 11:02:23;;;;;;;7.65;4.40;;;32.50;47.10;;;;;;5066488;28;20036;-76
2021/07/20 11:04:59;;;;;;;10.70;5.10;;;32.50;46.60;;;;;;5065079;28;20055;-75
2021/07/20 11:07:49;;;;;;;8.43;5.20;;;32.60;46.30;;;;;;5065475;28;20055;-79
2021/07/20 11:10:33;;;;;;;12.30;5.43;;;32.60;46.20;;;;;;5056810;28;20583;-78
2021/07/20 11:13:28;;;;;;;8.73;5.25;;;32.70;46.30;;;;;;5066092;28;20135;-81
2021/07/20 11:15:57;;;;;;;14.52;5.70;;;32.70;46.40;;;;;;5065237;28;20032;-80
2021/07/20 11:18:29;;;;;;;9.40;5.72;;;32.80;46.30;;;;;;5065523;28;20036;-78
2021/07/20 11:21:01;;;;;;;6.95;5.78;;;32.80;46.10;;;;;;5066336;28;20035;-81
2021/07/20 11:23:31;;;;;;;8.85;5.28;;;32.90;46.30;;;;;;5065965;28;20070;-74
2021/07/20 11:25:58;;;;;;;10.13;6.97;;;33.00;46.20;;;;;;5065773;28;20029;-79
2021/07/20 11:28:24;;;;;;;15.88;6.80;;;33.00;46.10;;;;;;5064715;28;20535;-86
2021/07/20 11:30:54;;;;;;;9.00;6.35;;;33.00;46.10;;;;;;5064993;28;20155;-81
2021/07/20 11:33:51;;;;;;;8.30;6.20;;;33.10;45.80;;;;;;5065587;28;20132;-84
2021/07/20 11:36:23;;;;;;;13.27;5.97;;;33.10;45.60;;;;;;5029865;28;20150;-83
2021/07/20 11:38:55;;;;;;;9.00;5.72;;;33.20;45.40;;;;;;5065021;28;20032;-76
2021/07/20 11:41:42;;;;;;;8.00;5.80;;;33.30;45.50;;;;;;5066712;28;20033;-79
2021/07/20 11:44:33;;;;;;;9.70;5.35;;;33.30;45.40;;;;;;5055939;28;20399;-80
2021/07/20 11:47:08;;;;;;;7.20;5.18;;;33.30;45.30;;;;;;5046130;28;20029;-87
2021/07/20 11:50:04;;;;;;;7.80;5.20;;;33.40;45.10;;;;;;5061446;28;20527;-79
2021/07/20 11:52:46;;;;;;;7.60;5.28;;;33.40;45.00;;;;;;5052998;28;20029;-83
2021/07/20 11:55:36;;;;;;;8.03;5.37;;;33.50;45.00;;;;;;5067912;28;20031;-78
2021/07/20 11:58:30;;;;;;;6.50;4.68;;;33.60;44.90;;;;;;5064656;28;20048;-77
2021/07/20 12:01:47;;;;;;;8.90;4.85;;;33.50;44.70;;;;;;5066499;28;20037;-75
2021/07/20 12:04:40;;;;;;;10.10;4.43;;;33.60;44.50;;;;;;5048382;28;20491;-73
2021/07/20 12:07:33;;;;;;;9.00;4.20;;;33.60;44.20;;;;;;5068984;28;20045;-74
2021/07/20 12:10:18;;;;;;;6.13;3.65;;;33.70;44.00;;;;;;5069568;28;20286;-74
2021/07/20 12:12:49;;;;;;;10.80;4.90;;;33.80;43.50;;;;;;5068705;28;20096;-77
2021/07/20 12:15:19;;;;;;;8.23;3.97;;;33.70;43.20;;;;;;5068585;28;20028;-74
2021/07/20 12:17:45;;;;;;;5.38;4.00;;;33.80;42.90;;;;;;5068856;28;20356;-75
2021/07/20 12:20:15;;;;;;;9.13;4.32;;;33.90;42.60;;;;;;5068188;28;20036;-77
2021/07/20 12:22:44;;;;;;;10.50;4.45;;;33.90;42.10;;;;;;5068653;28;20555;-75
2021/07/20 12:25:13;;;;;;;6.70;3.92;;;33.90;41.80;;;;;;5067447;28;20029;-74
2021/07/20 12:27:40;;;;;;;9.73;3.78;;;33.90;41.40;;;;;;5069208;28;20029;-74
2021/07/20 12:30:09;;;;;;;11.70;4.30;;;34.00;41.10;;;;;;5067720;28;20055;-75
2021/07/20 12:32:37;;;;;;;7.07;3.53;;;34.00;40.90;;;;;;5060669;28;20112;-75
2021/07/20 12:35:04;;;;;;;6.95;4.20;;;34.10;40.90;;;;;;5068300;28;20032;-73
2021/07/20 12:37:31;;;;;;;4.50;3.78;;;34.10;40.80;;;;;;5068994;28;20060;-75
2021/07/20 12:39:58;;;;;;;4.95;3.75;;;34.20;40.70;;;;;;5066981;28;20088;-74
2021/07/20 12:42:33;;;;;;;11.70;3.97;;;34.30;40.80;;;;;;5068151;28;20021;-77
2021/07/20 12:45:09;;;;;;;9.02;4.60;;;34.30;40.70;;;;;;5067937;28;20029;-77
2021/07/20 12:47:46;;;;;;;9.43;4.78;;;34.30;40.60;;;;;;5069181;28;20453;-73
2021/07/20 12:50:18;;;;;;;10.25;4.28;;;34.40;40.60;;;;;;5067667;28;20495;-75
2021/07/20 12:52:49;;;;;;;6.43;4.50;;;34.50;40.60;;;;;;5068816;28;20032;-74
2021/07/20 12:55:18;;;;;;;7.88;4.50;;;34.50;40.40;;;;;;5068265;28;20032;-74
2021/07/20 12:57:52;;;;;;;10.00;4.25;;;34.60;40.20;;;;;;5067020;28;20069;-75
2021/07/20 13:00:23;;;;;;;6.80;4.53;;;34.60;40.10;;;;;;5068973;28;20062;-76
2021/07/20 13:02:51;;;;;;;8.75;5.30;;;34.60;40.10;;;;;;5067572;28;20089;-74
2021/07/20 13:05:23;;;;;;;10.15;4.72;;;34.70;40.00;;;;;;5068183;28;20033;-77
2021/07/20 13:07:52;;;;;;;7.85;4.72;;;34.80;40.10;;;;;;5067727;28;20449;-76
2021/07/20 13:10:18;;;;;;;8.82;4.80;;;34.70;39.90;;;;;;5068678;28;20075;-74
2021/07/20 13:12:47;;;;;;;6.53;4.40;;;34.80;39.80;;;;;;5066883;28;20801;-76
2021/07/20 13:15:21;;;;;;;6.32;4.45;;;34.90;39.50;;;;;;5067559;28;20028;-75
2021/07/20 13:17:56;;;;;;;8.00;4.55;;;35.00;39.20;;;;;;5068574;28;20036;-75